Impacts TAF Board INFO
FOR SITUATIONAL AWARENESS. NOT TO BE USED FOR FLIGHT PLANNING PURPOSES.
IDs:

KMDW - Chicago/Midway Intl, IL, US

Issued at 0258 UTC 28 Jun 2017
Updated at 0347 UTC 28 Jun 2017
Potential Impact None Slight Moderate High
Time0253Z 28/04Z 28/05Z 28/06Z 28/07Z 28/08Z 28/09Z 28/10Z 28/11Z 28/12Z 28/13Z 28/14Z 28/15Z 28/16Z>>
Type OBS PRVL PRVL PRVL PRVL PRVL PRVL PRVL PRVL PRVL PRVL PRVL PRVL PRVL
VIS 10 >6 >6 >6 >6 >6 >6 >6 >6 >6 >6 >6 >6 >6
CIG -- -- -- -- -- -- -- -- -- -- 250 250 250 120
Cover SCT SCT SCT SCT SCT SCT SCT SCT SCT SCT BKN BKN BKN BKN
FltCat VFR VFR VFR VFR VFR VFR VFR VFR VFR VFR VFR VFR VFR VFR
WX -- -- -- -- -- -- -- -- -- -- -- -- -- --
WDir 190 190 190 190 190 190 190 190 190 190 180 180 180 190
WSpd 6 7 7 7 7 7 7 7 7 7 14 14 14 18
WGst -- -- -- -- -- -- -- -- -- -- -- -- -- 28

Raw TAF
KMDW 280258Z 2803/2824 19007KT P6SM SCT250
  FM281300 18014KT P6SM FEW045 BKN250
  FM281600 19018G28KT P6SM SCT045 BKN120


Raw METAR
KMDW 280253Z 19006KT 10SM SCT250 22/08 A3004 RMK AO2 SLP165 T02170078 53007
KMDW 280153Z 20007KT 10SM SCT250 22/07 A3002 RMK AO2 SLP158 T02220072
KMDW 280053Z 20009KT 10SM BKN250 23/08 A3002 RMK AO2 SLP160 T02280078

METAR Board
Radar Display
Forecast Discussion

FOR SITUATIONAL AWARENESS. NOT TO BE USED FOR FLIGHT PLANNING PURPOSES.

Page loaded:  03:47 UTC  |   08:47 PM Pacific  |   09:47 PM Mountain  |   10:47 PM Central  |   11:47 PM Eastern

 

ADVISORIES

FORECASTS

FORECASTS

OBSERVATIONS

USER TOOLS

ABOUT US